createdAt,value
2023-02-09T00:01:54.992Z,77.72
2023-02-09T00:04:56.718Z,77.74
2023-02-09T00:07:58.742Z,77.70
2023-02-09T00:11:00.630Z,77.51
2023-02-09T00:14:02.294Z,77.68
2023-02-09T00:17:04.885Z,77.56
2023-02-09T00:20:08.483Z,77.70
2023-02-09T00:23:10.088Z,77.67
2023-02-09T00:26:11.984Z,77.74
2023-02-09T00:29:14.617Z,77.55
2023-02-09T00:32:16.272Z,77.46
2023-02-09T00:35:18.202Z,77.71
2023-02-09T00:38:19.757Z,77.85
2023-02-09T00:41:21.400Z,78.02
2023-02-09T00:44:22.942Z,78.13
2023-02-09T00:47:25.064Z,78.05
2023-02-09T00:50:28.011Z,77.97
2023-02-09T00:53:30.065Z,77.98
2023-02-09T00:56:31.734Z,78.20
2023-02-09T00:59:34.699Z,77.92
2023-02-09T01:02:36.962Z,78.03
2023-02-09T01:05:43.023Z,78.09
2023-02-09T01:08:45.103Z,77.95
2023-02-09T01:11:46.910Z,77.99
2023-02-09T01:14:48.647Z,77.98
2023-02-09T01:17:50.452Z,77.99
2023-02-09T01:20:52.043Z,77.96
2023-02-09T01:23:53.616Z,78.11
2023-02-09T01:26:55.599Z,78.03
2023-02-09T01:29:57.514Z,78.03
2023-02-09T01:32:59.227Z,77.95
2023-02-09T01:36:04.782Z,77.76
2023-02-09T01:39:08.474Z,77.65
2023-02-09T01:42:18.530Z,77.60
2023-02-09T01:45:23.418Z,77.57
2023-02-09T01:48:28.601Z,77.72
2023-02-09T01:51:33.587Z,77.82
2023-02-09T01:54:51.680Z,77.79
2023-02-09T01:57:57.149Z,78.00
2023-02-09T02:01:00.191Z,77.70
2023-02-09T02:04:02.155Z,77.28
2023-02-09T02:07:18.518Z,77.12
2023-02-09T02:10:20.226Z,77.10
2023-02-09T02:13:21.891Z,77.12
2023-02-09T02:16:23.553Z,77.38
2023-02-09T02:20:07.716Z,77.45
2023-02-09T02:23:30.753Z,77.54
2023-02-09T02:26:41.166Z,77.48
2023-02-09T02:29:52.048Z,77.45
2023-02-09T02:33:05.616Z,77.52
2023-02-09T02:36:28.565Z,77.76
2023-02-09T02:39:44.054Z,77.77
2023-02-09T02:42:53.738Z,77.73
2023-02-09T02:45:55.333Z,77.86
2023-02-09T02:49:08.184Z,77.82
2023-02-09T02:52:11.124Z,77.98
2023-02-09T02:55:18.776Z,77.86
2023-02-09T02:58:22.323Z,77.79
2023-02-09T03:01:26.502Z,77.80
2023-02-09T03:04:28.648Z,77.74
2023-02-09T03:07:31.690Z,77.84
2023-02-09T03:10:36.463Z,77.86
2023-02-09T03:13:57.092Z,77.73
2023-02-09T03:17:35.536Z,77.76
2023-02-09T03:20:59.421Z,77.76
2023-02-09T03:24:07.356Z,77.91
2023-02-09T03:27:22.163Z,77.92
2023-02-09T03:30:24.617Z,77.94
2023-02-09T03:33:30.638Z,77.97
2023-02-09T03:36:35.304Z,77.83
2023-02-09T03:39:37.122Z,77.86
2023-02-09T03:42:38.573Z,77.83
2023-02-09T03:45:40.540Z,77.98
2023-02-09T03:48:42.035Z,77.92
2023-02-09T03:51:43.826Z,77.89
2023-02-09T03:54:45.868Z,77.82
2023-02-09T03:57:47.549Z,77.86
2023-02-09T04:00:49.264Z,77.99
2023-02-09T04:03:51.000Z,78.27
2023-02-09T04:06:52.590Z,78.05
2023-02-09T04:09:54.290Z,77.95
2023-02-09T04:12:55.909Z,77.91
2023-02-09T04:15:57.467Z,77.97
2023-02-09T04:18:59.199Z,77.96
2023-02-09T04:22:00.785Z,78.02
2023-02-09T04:25:02.377Z,77.99
2023-02-09T04:28:04.120Z,78.05
2023-02-09T04:31:05.953Z,77.77
2023-02-09T04:34:07.462Z,77.82
2023-02-09T04:37:09.449Z,77.75
2023-02-09T04:40:11.299Z,77.56
2023-02-09T04:43:12.852Z,77.67
2023-02-09T04:46:16.857Z,77.60
2023-02-09T04:49:18.458Z,77.57
2023-02-09T04:52:20.124Z,77.46
2023-02-09T04:55:21.660Z,77.46
2023-02-09T04:58:23.313Z,77.55
2023-02-09T05:01:25.672Z,77.61
2023-02-09T05:04:27.617Z,77.57
2023-02-09T05:07:29.338Z,77.04
2023-02-09T05:10:31.050Z,76.88
2023-02-09T05:13:32.789Z,76.86
2023-02-09T05:16:34.352Z,76.96
2023-02-09T05:19:35.932Z,77.11
2023-02-09T05:22:37.543Z,77.21
2023-02-09T05:25:39.180Z,77.22
2023-02-09T05:28:40.709Z,77.31
2023-02-09T05:31:42.276Z,77.39
2023-02-09T05:34:44.149Z,77.66
2023-02-09T05:37:45.638Z,78.27
2023-02-09T05:40:47.734Z,77.90
2023-02-09T05:43:49.671Z,77.43
2023-02-09T05:46:51.208Z,77.27
2023-02-09T05:49:53.059Z,77.30
2023-02-09T05:52:54.561Z,77.29
2023-02-09T05:55:56.045Z,77.34
2023-02-09T05:58:57.720Z,77.29
2023-02-09T06:01:59.855Z,77.30
2023-02-09T06:05:01.611Z,77.49
2023-02-09T06:08:03.503Z,77.41
2023-02-09T06:11:04.922Z,77.39
2023-02-09T06:14:06.680Z,77.58
2023-02-09T06:17:08.485Z,77.47
2023-02-09T06:20:10.820Z,77.70
2023-02-09T06:23:12.418Z,77.86
2023-02-09T06:26:17.124Z,78.07
2023-02-09T06:29:18.854Z,78.44
2023-02-09T06:32:20.465Z,78.69
2023-02-09T06:35:22.369Z,79.26
2023-02-09T06:38:24.104Z,79.42
2023-02-09T06:41:25.625Z,79.31
2023-02-09T06:44:27.147Z,79.71
2023-02-09T06:47:28.774Z,79.75
2023-02-09T06:50:31.005Z,79.42
2023-02-09T06:53:32.838Z,79.17
2023-02-09T06:56:34.379Z,78.71
2023-02-09T06:59:36.152Z,78.45
2023-02-09T07:02:37.814Z,78.19
2023-02-09T07:05:40.174Z,77.86
2023-02-09T07:08:42.482Z,77.52
2023-02-09T07:11:44.002Z,77.00
2023-02-09T07:14:45.679Z,77.00
2023-02-09T07:17:47.520Z,77.01
2023-02-09T07:21:00.534Z,77.50
2023-02-09T07:24:02.084Z,77.04
2023-02-09T07:27:06.992Z,77.09
2023-02-09T07:30:09.683Z,77.31
2023-02-09T07:33:11.221Z,77.44
2023-02-09T07:36:15.441Z,77.04
2023-02-09T07:39:17.629Z,76.59
2023-02-09T07:42:19.492Z,76.43
2023-02-09T07:45:21.053Z,75.66
2023-02-09T07:48:22.732Z,75.90
2023-02-09T07:51:24.734Z,75.41
2023-02-09T07:54:26.569Z,75.50
2023-02-09T07:57:28.446Z,75.49
2023-02-09T08:00:29.953Z,75.36
2023-02-09T08:03:32.195Z,75.48
2023-02-09T08:06:43.420Z,75.72
2023-02-09T08:09:45.233Z,75.64
2023-02-09T08:12:46.991Z,75.43
2023-02-09T08:16:01.227Z,75.68
2023-02-09T08:19:15.623Z,75.60
2023-02-09T08:22:17.558Z,75.89
2023-02-09T08:25:19.810Z,76.73
2023-02-09T08:28:31.806Z,77.09
2023-02-09T08:31:40.648Z,76.80
2023-02-09T08:34:42.365Z,75.70
2023-02-09T08:37:43.892Z,75.22
2023-02-09T08:40:46.370Z,74.81
2023-02-09T08:43:51.672Z,74.85
2023-02-09T08:46:53.582Z,75.01
2023-02-09T08:49:55.384Z,75.06
2023-02-09T08:52:56.999Z,74.89
2023-02-09T08:55:58.584Z,75.20
2023-02-09T08:59:00.211Z,74.81
2023-02-09T09:02:02.081Z,74.45
2023-02-09T09:05:04.011Z,73.95
2023-02-09T09:08:06.505Z,73.62
2023-02-09T09:11:08.500Z,73.24
2023-02-09T09:14:10.182Z,72.56
2023-02-09T09:17:11.747Z,72.23
2023-02-09T09:20:13.729Z,71.49
2023-02-09T09:23:15.540Z,71.50
2023-02-09T09:26:17.545Z,71.00
2023-02-09T09:29:19.090Z,71.20
2023-02-09T09:32:20.828Z,70.69
2023-02-09T09:35:22.718Z,70.60
2023-02-09T09:38:24.252Z,70.68
2023-02-09T09:41:31.193Z,70.37
2023-02-09T09:44:41.750Z,70.02
2023-02-09T09:47:43.943Z,70.15
2023-02-09T09:50:46.415Z,69.70
2023-02-09T09:53:51.108Z,69.69
2023-02-09T09:56:53.974Z,69.16
2023-02-09T09:59:56.700Z,68.56
2023-02-09T10:02:58.392Z,68.24
2023-02-09T10:06:02.026Z,68.61
2023-02-09T10:09:16.939Z,68.40
2023-02-09T10:12:36.885Z,68.30
2023-02-09T10:15:38.564Z,67.83
2023-02-09T10:18:40.152Z,66.71
2023-02-09T10:21:41.923Z,66.70
2023-02-09T10:24:43.587Z,67.31
2023-02-09T10:27:46.452Z,66.94
2023-02-09T10:30:51.234Z,66.93
2023-02-09T10:33:59.106Z,66.94
2023-02-09T10:37:17.414Z,67.37
2023-02-09T10:40:27.794Z,66.80
2023-02-09T10:43:33.850Z,66.85
2023-02-09T10:46:37.721Z,67.49
2023-02-09T10:49:39.436Z,67.31
2023-02-09T10:53:01.813Z,66.74
2023-02-09T10:56:15.100Z,64.87
2023-02-09T10:59:22.454Z,64.89
2023-02-09T11:02:37.819Z,64.54
2023-02-09T11:05:39.474Z,64.50
2023-02-09T11:08:47.363Z,63.91
2023-02-09T11:11:49.110Z,63.72
2023-02-09T11:14:50.763Z,63.33
2023-02-09T11:18:17.320Z,64.52
2023-02-09T11:21:31.702Z,63.93
2023-02-09T11:24:43.401Z,63.78
2023-02-09T11:28:18.911Z,63.82
2023-02-09T11:31:35.956Z,63.99
2023-02-09T11:34:54.069Z,62.99
2023-02-09T11:38:02.937Z,62.77
2023-02-09T11:41:08.399Z,62.85
2023-02-09T11:44:18.643Z,61.87
2023-02-09T11:47:30.573Z,63.22
2023-02-09T11:51:09.993Z,63.34
2023-02-09T11:54:17.763Z,63.01
2023-02-09T11:57:33.685Z,62.56
2023-02-09T12:00:54.749Z,62.41
2023-02-09T12:04:16.292Z,62.16
2023-02-09T12:07:21.795Z,61.67
2023-02-09T12:10:42.273Z,62.55
2023-02-09T12:14:07.337Z,63.42
2023-02-09T12:17:24.325Z,63.93
2023-02-09T12:20:29.554Z,63.94
2023-02-09T12:23:37.904Z,64.28
2023-02-09T12:26:44.388Z,64.53
2023-02-09T12:29:45.997Z,64.58
2023-02-09T12:32:47.664Z,65.07
2023-02-09T12:36:07.649Z,65.35
2023-02-09T12:39:26.353Z,65.31
2023-02-09T12:42:30.746Z,66.35
2023-02-09T12:45:44.257Z,66.53
2023-02-09T12:48:50.948Z,66.32
2023-02-09T12:52:04.338Z,66.66
2023-02-09T12:55:18.268Z,66.89
2023-02-09T12:58:44.691Z,66.91
2023-02-09T13:02:08.074Z,66.95
2023-02-09T13:05:12.999Z,66.99
2023-02-09T13:08:21.562Z,67.20
2023-02-09T13:11:49.820Z,67.17
2023-02-09T13:14:51.593Z,67.03
2023-02-09T13:18:17.825Z,66.60
2023-02-09T13:21:35.083Z,67.02
2023-02-09T13:24:45.172Z,66.90
2023-02-09T13:27:48.963Z,66.07
2023-02-09T13:30:50.624Z,66.00
2023-02-09T13:33:52.761Z,65.97
2023-02-09T13:37:10.026Z,66.35
2023-02-09T13:40:17.759Z,65.89
2023-02-09T13:43:30.541Z,66.27
2023-02-09T13:46:33.103Z,66.38
2023-02-09T13:49:34.799Z,66.13
2023-02-09T13:52:39.001Z,65.96
2023-02-09T13:55:41.035Z,65.78
2023-02-09T13:58:42.533Z,66.06
2023-02-09T14:01:45.053Z,66.31
2023-02-09T14:04:49.967Z,66.71
2023-02-09T14:07:52.414Z,66.44
2023-02-09T14:11:13.421Z,65.43
2023-02-09T14:14:45.099Z,66.15
2023-02-09T14:17:50.813Z,65.75
2023-02-09T14:21:22.108Z,65.97
2023-02-09T14:24:28.342Z,66.39
2023-02-09T14:27:31.814Z,66.83
2023-02-09T14:30:35.530Z,66.95
2023-02-09T14:33:37.669Z,66.99
2023-02-09T14:36:39.340Z,67.09
2023-02-09T14:39:54.296Z,67.22
2023-02-09T14:43:17.018Z,67.42
2023-02-09T14:46:18.563Z,67.41
2023-02-09T14:49:21.309Z,66.95
2023-02-09T14:52:24.651Z,66.66
2023-02-09T14:55:28.627Z,66.61
2023-02-09T14:58:32.018Z,66.36
2023-02-09T15:01:33.625Z,66.39
2023-02-09T15:04:35.201Z,66.48
2023-02-09T15:07:39.836Z,66.43
2023-02-09T15:10:47.614Z,66.35
2023-02-09T15:13:53.520Z,66.49
2023-02-09T15:16:55.060Z,66.04
2023-02-09T15:19:57.971Z,65.60
2023-02-09T15:22:59.816Z,66.16
2023-02-09T15:26:01.224Z,66.21
2023-02-09T15:29:10.668Z,66.66
2023-02-09T15:32:15.299Z,66.81
2023-02-09T15:35:20.172Z,67.00
2023-02-09T15:38:21.832Z,67.00
2023-02-09T15:41:23.440Z,66.78
2023-02-09T15:44:25.073Z,66.82
2023-02-09T15:47:26.783Z,67.07
2023-02-09T15:50:29.786Z,67.19
2023-02-09T15:53:31.616Z,66.92
2023-02-09T15:56:33.747Z,67.12
2023-02-09T15:59:35.508Z,66.85
2023-02-09T16:02:37.156Z,67.04
2023-02-09T16:05:39.244Z,67.04
2023-02-09T16:08:41.140Z,66.94
2023-02-09T16:11:42.954Z,67.02
2023-02-09T16:14:44.703Z,67.04
2023-02-09T16:17:46.361Z,67.00
2023-02-09T16:20:50.659Z,66.89
2023-02-09T16:23:54.799Z,67.33
2023-02-09T16:26:59.349Z,66.92
2023-02-09T16:30:00.983Z,67.50
2023-02-09T16:33:02.719Z,67.27
2023-02-09T16:36:10.904Z,67.41
2023-02-09T16:39:17.117Z,67.38
2023-02-09T16:42:18.737Z,67.95
2023-02-09T16:45:20.956Z,67.52
2023-02-09T16:48:25.489Z,67.96
2023-02-09T16:51:27.213Z,67.91
2023-02-09T16:54:30.093Z,68.24
2023-02-09T16:57:31.666Z,68.35
2023-02-09T17:00:35.771Z,68.46
2023-02-09T17:03:40.562Z,68.38
2023-02-09T17:06:42.190Z,68.21
2023-02-09T17:09:43.736Z,68.52
2023-02-09T17:12:45.490Z,68.52
2023-02-09T17:15:49.886Z,68.46
2023-02-09T17:18:54.025Z,68.65
2023-02-09T17:21:55.582Z,68.59
2023-02-09T17:24:57.348Z,68.78
2023-02-09T17:27:59.027Z,68.85
2023-02-09T17:31:02.405Z,68.62
2023-02-09T17:34:07.054Z,69.03
2023-02-09T17:37:12.924Z,68.30
2023-02-09T17:40:19.719Z,67.73
2023-02-09T17:43:21.824Z,68.42
2023-02-09T17:46:23.508Z,68.50
2023-02-09T17:49:25.326Z,68.86
2023-02-09T17:52:26.974Z,69.32
2023-02-09T17:55:29.535Z,69.56
2023-02-09T17:58:31.077Z,69.75
2023-02-09T18:01:32.691Z,70.16
2023-02-09T18:04:34.629Z,70.38
2023-02-09T18:07:36.113Z,70.14
2023-02-09T18:10:37.926Z,70.23
2023-02-09T18:13:39.466Z,70.05
2023-02-09T18:16:41.401Z,70.17
2023-02-09T18:19:43.044Z,70.08
2023-02-09T18:22:44.746Z,70.32
2023-02-09T18:25:46.747Z,70.13
2023-02-09T18:28:48.464Z,70.46
2023-02-09T18:31:50.710Z,70.47
2023-02-09T18:34:52.296Z,70.36
2023-02-09T18:37:54.015Z,70.25
2023-02-09T18:40:55.572Z,70.46
2023-02-09T18:43:57.245Z,70.02
2023-02-09T18:46:59.935Z,69.87
2023-02-09T18:50:01.463Z,69.87
2023-02-09T18:53:03.625Z,69.72
2023-02-09T18:56:05.686Z,69.64
2023-02-09T18:59:07.207Z,69.39
2023-02-09T19:02:11.145Z,69.47
2023-02-09T19:05:15.151Z,69.40
2023-02-09T19:08:16.795Z,69.58
2023-02-09T19:11:20.564Z,69.04
2023-02-09T19:14:22.361Z,68.17
2023-02-09T19:17:24.368Z,68.20
2023-02-09T19:20:30.734Z,68.35
2023-02-09T19:23:32.365Z,68.50
2023-02-09T19:26:34.035Z,68.59
2023-02-09T19:29:37.453Z,69.04
2023-02-09T19:32:39.226Z,69.10
2023-02-09T19:35:40.839Z,70.05
2023-02-09T19:38:42.520Z,69.73
2023-02-09T19:41:44.212Z,69.81
2023-02-09T19:44:45.800Z,69.96
2023-02-09T19:47:47.461Z,70.79
2023-02-09T19:50:56.888Z,70.67
2023-02-09T19:53:58.519Z,70.72
2023-02-09T19:57:00.321Z,70.81
2023-02-09T20:00:03.464Z,70.67
2023-02-09T20:03:06.952Z,70.89
2023-02-09T20:06:10.047Z,70.69
2023-02-09T20:09:11.641Z,71.22
2023-02-09T20:12:13.412Z,71.35
2023-02-09T20:15:15.226Z,71.46
2023-02-09T20:18:17.600Z,71.13
2023-02-09T20:21:22.099Z,71.19
2023-02-09T20:24:23.703Z,70.90
2023-02-09T20:27:25.800Z,71.36
2023-02-09T20:30:27.345Z,70.85
2023-02-09T20:33:29.096Z,70.92
2023-02-09T20:36:32.649Z,70.77
2023-02-09T20:39:34.316Z,71.18
2023-02-09T20:42:35.990Z,70.81
2023-02-09T20:45:37.616Z,71.02
2023-02-09T20:48:39.183Z,70.63
2023-02-09T20:51:40.788Z,70.64
2023-02-09T20:54:42.302Z,70.84
2023-02-09T20:57:44.028Z,70.58
2023-02-09T21:00:45.948Z,70.44
2023-02-09T21:03:47.525Z,70.77
2023-02-09T21:06:49.064Z,70.91
2023-02-09T21:09:51.034Z,70.98
2023-02-09T21:12:52.521Z,71.25
2023-02-09T21:15:54.202Z,71.30
2023-02-09T21:18:55.774Z,71.18
2023-02-09T21:21:57.511Z,71.14
2023-02-09T21:24:59.210Z,71.19
2023-02-09T21:28:00.899Z,71.19
2023-02-09T21:31:02.836Z,70.96
2023-02-09T21:34:04.437Z,70.92
2023-02-09T21:37:06.498Z,71.10
2023-02-09T21:40:09.210Z,71.41
2023-02-09T21:43:11.829Z,71.16
2023-02-09T21:46:16.781Z,71.44
2023-02-09T21:49:18.353Z,71.22
2023-02-09T21:52:20.372Z,71.32
2023-02-09T21:55:21.953Z,71.17
2023-02-09T21:58:23.529Z,71.03
2023-02-09T22:01:25.114Z,71.09
2023-02-09T22:04:26.703Z,70.88
2023-02-09T22:07:28.510Z,70.75
2023-02-09T22:10:30.083Z,71.19
2023-02-09T22:13:32.614Z,70.80
2023-02-09T22:16:34.309Z,70.48
2023-02-09T22:19:37.115Z,70.60
2023-02-09T22:22:38.678Z,70.72
2023-02-09T22:25:40.260Z,71.08
2023-02-09T22:28:42.631Z,71.02
2023-02-09T22:31:44.514Z,71.28
2023-02-09T22:34:45.966Z,71.30
2023-02-09T22:37:47.580Z,71.47
2023-02-09T22:40:49.113Z,71.44
2023-02-09T22:43:55.713Z,71.38
2023-02-09T22:46:57.317Z,71.50
2023-02-09T22:49:59.206Z,71.51
2023-02-09T22:53:00.655Z,71.50
2023-02-09T22:56:03.346Z,71.41
2023-02-09T22:59:05.258Z,71.31
2023-02-09T23:02:07.009Z,71.34
2023-02-09T23:05:08.691Z,71.61
2023-02-09T23:08:10.241Z,71.94
2023-02-09T23:11:14.369Z,72.31
2023-02-09T23:14:16.706Z,72.08
2023-02-09T23:17:19.489Z,72.02
2023-02-09T23:20:21.162Z,71.99
2023-02-09T23:23:22.699Z,72.05
2023-02-09T23:26:24.756Z,71.99
2023-02-09T23:29:26.512Z,72.13
2023-02-09T23:32:28.044Z,72.04
2023-02-09T23:35:29.817Z,71.82
2023-02-09T23:38:31.683Z,71.91
2023-02-09T23:41:33.556Z,71.90
2023-02-09T23:44:35.099Z,71.94
2023-02-09T23:47:36.718Z,72.28
2023-02-09T23:50:38.373Z,71.85
2023-02-09T23:53:40.168Z,72.04
2023-02-09T23:56:41.697Z,72.05
2023-02-09T23:59:43.234Z,72.08
